x

8452660 - Newport, Ri (nwpr1) Weather Station

11:30pm - Tue 17th Jan 2017 All times are EST. -5 hours from GMT.

  • Wind
    6mph, 10mph gusts
  • Sea Temp 40°f
  • Air Temp 40°f
  • Sea Pressure 1017.6mb
  • 8452660 - Newport, Ri
  • 8452660 - Newport, Ri

More Historic Weather Station data

Upgrade to MSW Pro to gain access to the past 30 days of data for over 8000 Wavebouys and Weather Stations around the globe.

Join Pro

Comparision Forecast

View Surf forecast
   
Tue 01/17 11:30pm 6 10 mph 1017.6mb 40f 40f
11:24pm 6 10 mph 1017.6mb 40f 40f
11:18pm 6 11 mph 1017.8mb 40f 40f
11:12pm 7 10 mph 1017.6mb 40f 40f
11:06pm 6 10 mph 1017.6mb 40f 40f
11:00pm 8 14 mph 1017.6mb 40f 40f
10:54pm 9 16 mph 1017.4mb 40f 40f
10:48pm 9 14 mph 1017.7mb 40f 40f
10:42pm 8 14 mph 1018mb 40f 40f
10:36pm 8 11 mph 1018mb 40f 40f
10:30pm 6 13 mph 1018.2mb 40f 40f
10:24pm 10 15 mph 1018mb 40f 40f
10:18pm 7 15 mph 1017.8mb 40f 40f
10:12pm 10 14 mph 1017.9mb 40f 40f
10:06pm 11 18 mph 1017.7mb 40f 40f
10:00pm 10 15 mph 1017.8mb 40f 40f
9:54pm 9 13 mph 1017.9mb 40f 40f
9:48pm 8 11 mph 1018.4mb 40f 40f
9:42pm 8 11 mph 1018.6mb 40f 40f
9:36pm 7 11 mph 1019mb 40f 40f
9:30pm 6 10 mph 1019.4mb 40f 40f
9:24pm 7 11 mph 1019mb 40f 39f
9:18pm 9 13 mph 1018.8mb 40f 39f
9:12pm 8 15 mph 1019mb 40f 39f
9:06pm 9 10 mph 1018.9mb 40f 39f
9:00pm 6 11 mph 1019.3mb 40f 39f
8:54pm 8 14 mph 1019mb 40f 39f
8:48pm 9 11 mph 1019.1mb 40f 39f
8:42pm 6 9 mph 1019.7mb 40f 39f
8:36pm 6 10 mph 1019.8mb 40f 39f
8:30pm 8 9 mph 1019.8mb 40f 39f
8:24pm 7 10 mph 1019.9mb 40f 39f
8:18pm 8 10 mph 1019.8mb 40f 39f
8:12pm 7 8 mph 1020mb 40f 39f
8:06pm 6 9 mph 1020.1mb 40f 39f
8:00pm 7 10 mph 1020.2mb 40f 39f
7:48pm 7 8 mph 1020.4mb 40f 39f
7:42pm 5 7 mph 1020.7mb 40f 39f
7:36pm 5 8 mph 1020.7mb 40f 39f
7:30pm 3 6 mph 1020.7mb 40f 39f
7:24pm 3 6 mph 1020.9mb 39f 39f
7:18pm 5 10 mph 1020.6mb 39f 39f
7:12pm 8 13 mph 1020.2mb 40f 39f
7:06pm 9 11 mph 1020.1mb 40f 39f
7:00pm 7 13 mph 1020.2mb 40f 39f
6:54pm 9 10 mph 1020.2mb 40f 39f
6:48pm 8 13 mph 1020.2mb 40f 39f
6:42pm 8 13 mph 1020.2mb 40f 39f
6:36pm 9 10 mph 1020.2mb 40f 39f
6:30pm 7 9 mph 1020.4mb 40f 39f
6:24pm 7 10 mph 1020.5mb 40f 39f
6:18pm 7 8 mph 1020.5mb 41f 39f
6:12pm 6 7 mph 1020.7mb 40f 39f
6:06pm 5 7 mph 1020.8mb 40f 39f
6:00pm 6 8 mph 1020.7mb 41f 39f
5:54pm 5 6 mph 1020.8mb 41f 40f
5:48pm 3 7 mph 1020.8mb 41f 40f
5:42pm 3 8 mph 1020.8mb 41f 40f
5:36pm 6
mph
1020.7mb 41f 40f
5:30pm 5 8 mph 1020.7mb 40f 40f
5:24pm 6 8 mph 1020.7mb 41f 40f
5:18pm 6 8 mph 1020.8mb 41f 40f
5:12pm 6 9 mph 1020.9mb 41f 40f
5:06pm 6 7 mph 1021mb 41f 40f
5:00pm 6 8 mph 1021.1mb 41f 40f
4:54pm 3 6 mph 1021.2mb 40f 40f
4:48pm 3 6 mph 1021.2mb 40f 40f
4:42pm 2 5 mph 1021.2mb 41f 40f
4:36pm 5
mph
1021.2mb 40f 41f
4:30pm 2 5 mph 1021.3mb 41f 41f
4:24pm 2 5 mph 1021.3mb 41f 41f
4:18pm 3 5 mph 1021.3mb 40f 41f
4:12pm 2 5 mph 1021.3mb 40f 41f
4:06pm 3 5 mph 1021.3mb 41f 41f
4:00pm 1 2 mph 1021.3mb 41f 40f
3:54pm 1 3 mph 1021.4mb 40f 40f
3:48pm 1 2 mph 1021.3mb 41f 41f
3:42pm 2 5 mph 1021.2mb 41f 41f
3:36pm 3 5 mph 1021.2mb 40f 40f
3:30pm 3
mph
1021.2mb 41f 41f
3:24pm 2 5 mph 1021.1mb 40f 41f
3:18pm 5 7 mph 1021.1mb 40f 41f
3:12pm 3 7 mph 1021.2mb 40f 42f
3:06pm 5 6 mph 1021.2mb 40f 42f
3:00pm 3 5 mph 1021.3mb 40f 41f
2:54pm 3 5 mph 1021.2mb 40f 40f
2:48pm 3 6 mph 1021.3mb 40f 40f
2:42pm 3 6 mph 1021.3mb 40f 40f
2:36pm 5 7 mph 1021.4mb 40f 40f
2:30pm 5 7 mph 1021.4mb 39f 40f
2:24pm 5 7 mph 1021.4mb 39f 40f
2:18pm 5 7 mph 1021.4mb 39f 40f
2:12pm 6
mph
1021.4mb 39f 40f
2:06pm 5 8 mph 1021.4mb 39f 40f
2:00pm 5
mph
1021.6mb 39f 40f
1:54pm 5 6 mph 1021.6mb 39f 40f
1:48pm 3 5 mph 1021.6mb 39f 40f
1:42pm 2 5 mph 1021.7mb 39f 41f
1:36pm 2 6 mph 1021.7mb 39f 40f
1:30pm 2 8 mph 1021.7mb 39f 41f
1:24pm 3 5 mph 1021.6mb 39f 41f
1:18pm 5 6 mph 1021.8mb 39f 41f
1:12pm 5 7 mph 1021.7mb 39f 41f
1:06pm 3 7 mph 1021.8mb 39f 40f
1:00pm 5 7 mph 1021.9mb 39f 40f
12:54pm 6 8 mph 1021.9mb 39f 40f
12:48pm 5 8 mph 1022mb 39f 40f
12:42pm 6 9 mph 1022.1mb 39f 40f
12:36pm 5 9 mph 1022.1mb 39f 40f
12:30pm 3 10 mph 1022.2mb 39f 40f
12:24pm 6 10 mph 1022.2mb 39f 40f
12:18pm 7 9 mph 1022.2mb 39f 40f
12:12pm 5 8 mph 1022.4mb 39f 39f
12:06pm 7 8 mph 1022.5mb 39f 38f
12:00pm 7 8 mph 1022.6mb 39f 38f
11:54am 6 7 mph 1022.9mb 39f 39f
11:48am 5 8 mph 1023mb 39f 38f
11:42am 6 8 mph 1022.9mb 39f 38f
11:36am 6 8 mph 1023mb 39f 38f
11:30am 6 8 mph 1023mb 39f 38f
11:24am 6 8 mph 1023mb 39f 38f
11:18am 7 8 mph 1023.1mb 39f 38f
11:12am 3 5 mph 1023.2mb 39f 38f
11:06am 2 5 mph 1023.3mb 39f 38f
11:00am 2 5 mph 1023.5mb 39f 38f
10:54am 5 7 mph 1023.6mb 39f 38f
10:48am 6 8 mph 1023.6mb 39f 37f
10:42am 5 7 mph 1023.7mb 39f 38f
10:36am 3 7 mph 1023.7mb 39f 38f
10:30am 3 7 mph 1023.7mb 39f 38f
10:24am 6 7 mph 1023.6mb 39f 38f
10:18am 3 7 mph 1023.8mb 39f 38f
10:12am 7
mph
1023.8mb 39f 38f
10:06am 5 6 mph 1023.9mb 39f 38f
10:00am 3 5 mph 1024.1mb 39f 38f
9:54am 3 5 mph 1024.1mb 39f 38f
9:48am 3 6 mph 1024mb 39f 38f
9:42am 5 6 mph 1024mb 39f 37f
9:36am 3 6 mph 1024.1mb 39f 37f
9:30am 3 5 mph 1024mb 39f 38f
9:24am 2
mph
1024.2mb 39f 38f
9:18am 2 3 mph 1024.1mb 39f 38f
9:12am 2
mph
1024.1mb 39f 38f
9:06am 2 3 mph 1024.1mb 39f 37f
9:00am 2 3 mph 1024.1mb 39f 37f
8:54am 3 5 mph 1024mb 39f 37f
8:48am 2 5 mph 1023.9mb 39f 37f
8:42am 3 5 mph 1023.9mb 39f 37f
8:36am 2 3 mph 1024mb 39f 37f
8:30am 2 3 mph 1023.9mb 39f 37f
8:24am 2
mph
1023.8mb 39f 37f
8:18am 1 5 mph 1023.7mb 39f 37f
8:12am 3 5 mph 1023.7mb 39f 37f
8:06am 2
mph
1023.5mb 39f 37f
8:00am  -  2 mph 1023.4mb 39f 37f
7:54am 1 3 mph 1023.3mb 39f 37f
7:48am 2 3 mph 1023.4mb 39f 37f
7:42am 2 3 mph 1023.2mb 39f 37f
7:36am 3 5 mph 1023.2mb 39f 37f
7:30am  -  3 mph 1023.1mb 39f 37f
7:24am 2 5 mph 1023mb 39f 37f
7:18am 5
mph
1023mb 39f 37f
7:12am 3 5 mph 1023mb 39f 37f
7:06am 5 6 mph 1022.8mb 39f 37f
7:00am 3 6 mph 1022.8mb 39f 37f
6:54am 5 7 mph 1022.8mb 39f 37f
6:48am 6 7 mph 1022.9mb 39f 37f
6:42am 6 7 mph 1023.1mb 39f 37f
6:36am 6 8 mph 1023.1mb 39f 38f
6:30am 7 8 mph 1023.1mb 39f 38f
6:24am 6 8 mph 1022.9mb 39f 38f
6:18am 7 8 mph 1022.8mb 39f 38f
6:12am 6 7 mph 1022.8mb 39f 38f
6:06am 6 7 mph 1022.8mb 39f 38f
6:00am 6 10 mph 1022.9mb 39f 38f
5:54am 8 10 mph 1022.9mb 39f 38f
5:48am 9
mph
1022.9mb 39f 38f
5:42am 7
mph
1022.8mb 39f 37f
5:36am 6
mph
1022.8mb 39f 37f
5:30am 5 6 mph 1022.8mb 39f 37f
5:24am 5
mph
1022.7mb 39f 37f
5:18am 2 3 mph 1022.6mb 39f 37f
5:12am 2 3 mph 1022.5mb 39f 37f
5:06am 3 5 mph 1022.6mb 39f 37f
5:00am 2 5 mph 1022.7mb 39f 37f
4:54am 3 6 mph 1022.7mb 39f 37f
4:48am 6 8 mph 1022.7mb 39f 37f
4:42am 7 8 mph 1022.7mb 39f 37f
4:36am 8 9 mph 1022.6mb 39f 37f
4:30am 8 9 mph 1022.6mb 39f 37f
4:24am 7 8 mph 1022.6mb 39f 37f
4:18am 5 6 mph 1022.6mb 39f 37f
4:12am 6 7 mph 1022.8mb 39f 37f
4:06am 6 7 mph 1022.8mb 39f 37f
4:00am 5 7 mph 1022.8mb 39f 37f
3:54am 6 7 mph 1022.8mb 39f 37f
3:48am 7 9 mph 1022.9mb 39f 37f
3:42am 7 9 mph 1022.9mb 39f 37f
3:36am 7 8 mph 1022.8mb 39f 37f
3:30am 7 8 mph 1022.8mb 38f 37f
3:24am 6 7 mph 1022.9mb 39f 38f
3:18am 6 7 mph 1022.9mb 39f 37f
3:12am 7 8 mph 1023.1mb 39f 38f
3:06am 7
mph
1023.2mb 39f 38f
3:00am 5 6 mph 1023.2mb 39f 38f
2:54am 5 6 mph 1023.1mb 39f 38f
2:48am 5 7 mph 1023.2mb 39f 38f
2:42am 7 8 mph 1023.2mb 39f 38f
2:36am 8 11 mph 1023.3mb 39f 38f
2:30am 9 10 mph 1023.3mb 39f 38f
2:24am 8 9 mph 1023.3mb 39f 38f
2:18am 7 8 mph 1023.3mb 39f 38f
2:12am 7 8 mph 1023.3mb 39f 38f
2:06am 7 8 mph 1023.4mb 39f 38f
2:00am 7 8 mph 1023.5mb 39f 38f
1:54am 6 9 mph 1023.5mb 39f 38f
1:48am 7 8 mph 1023.5mb - -
1:42am 6 7 mph 1023.5mb - -
1:30am 6
mph
1023.3mb 39f 38f
1:24am 5 7 mph 1023.4mb 39f 37f
1:18am 6 8 mph 1023.4mb 39f 37f
1:12am 6 8 mph 1023.6mb 39f 37f
1:06am 5 7 mph 1023.6mb 39f 37f
1:00am 5 7 mph 1023.7mb 39f 37f
12:54am 7 8 mph 1023.6mb 39f 37f
12:48am 6 8 mph - - -
12:42am 6 7 mph - - -
12:36am 6 8 mph - - -
12:30am 7 9 mph 1023.8mb 39f 37f
12:24am 7 8 mph 1023.9mb 39f 37f
12:18am 6 8 mph 1024mb 39f 37f
12:12am 6 9 mph 1024.1mb 39f 37f
12:06am 7 8 mph 1024.1mb 39f 37f
12:00am 7
mph
1024.3mb 39f 37f
Mon 01/16 11:54pm 6 8 mph 1024.3mb 39f 37f
11:48pm 6 8 mph 1024.4mb 39f 37f
11:42pm 6 7 mph 1024.4mb 39f 37f
11:36pm 6 8 mph 1024.4mb 39f 37f
11:30pm 6 9 mph 1024.4mb 39f 37f
11:24pm 7 10 mph 1024.6mb 39f 37f
11:18pm 8 10 mph 1024.6mb 39f 37f
11:12pm 8 10 mph 1024.6mb 39f 37f
11:06pm 8 11 mph 1024.6mb 39f 37f
11:00pm 9 11 mph 1024.8mb 39f 37f
10:54pm 9 14 mph 1024.8mb 39f 37f
10:48pm 9 13 mph 1024.9mb 39f 37f
10:42pm 10 13 mph 1025mb 39f 37f
10:36pm 11 15 mph 1025mb 39f 37f
10:30pm 11 14 mph 1025.1mb 39f 37f
10:24pm 10 15 mph 1025.1mb 39f 37f
10:18pm 10 15 mph 1025.2mb 39f 37f
10:12pm 11 14 mph 1025.1mb 39f 37f
10:06pm 13 15 mph 1025.1mb 39f 37f
10:00pm 10 14 mph 1025.2mb 39f 37f
9:54pm 11 16 mph 1025.2mb 39f 37f
9:48pm 13 14 mph 1025.3mb 39f 37f
9:42pm 10 14 mph 1025.3mb 39f 37f
9:36pm 11 14 mph 1025.5mb 39f 37f
9:30pm 11 14 mph 1025.5mb 39f 37f
9:24pm 10 14 mph 1025.7mb 39f 37f
9:18pm 11 14 mph 1025.7mb 39f 37f
9:12pm 10 11 mph 1025.7mb 39f 37f
9:06pm 10 14 mph 1025.7mb 39f 37f
9:00pm 10 13 mph 1025.8mb 39f 37f
8:54pm 10 13 mph 1025.8mb 39f 37f
8:48pm 9 14 mph 1025.9mb 39f 37f
8:42pm 10
mph
1025.9mb 39f 37f
8:36pm 8 10 mph 1026mb 39f 37f
8:30pm 8 9 mph 1026mb 39f 37f
8:24pm 8 10 mph 1026mb 39f 37f
8:18pm 8 10 mph 1026.1mb 39f 37f
8:12pm 8 10 mph 1026mb 39f 37f
8:06pm 8 10 mph 1026.1mb 39f 37f
8:00pm 8 9 mph 1026.1mb 39f 37f
7:54pm 7 9 mph 1026.1mb 39f 37f
7:48pm 7 8 mph 1026.1mb 39f 37f
7:42pm 7 8 mph 1026.1mb 39f 37f
7:36pm 6 8 mph 1026.2mb 39f 37f
7:30pm 7 8 mph 1026.2mb 39f 37f
7:24pm 7 8 mph 1026.2mb 39f 37f
7:18pm 7 8 mph 1026.2mb 39f 37f
7:12pm 7 9 mph 1026.3mb 39f 37f
7:06pm 7 9 mph 1026.4mb 39f 37f
7:00pm 7 9 mph 1026.5mb 40f 37f
6:54pm 8 10 mph 1026.4mb 40f 37f
6:48pm 8 9 mph 1026.4mb 39f 37f
6:42pm 8 11 mph 1026.4mb 40f 37f
6:36pm 8 10 mph 1026.5mb 40f 37f
6:30pm 9 13 mph 1026.4mb 40f 37f
6:24pm 10 13 mph 1026.3mb 40f 37f
6:18pm 10 11 mph 1026.4mb 40f 37f
6:12pm 10 14 mph 1026.3mb 40f 37f
6:06pm 11 14 mph 1026.3mb 39f 37f
6:00pm 11 14 mph 1026.2mb 39f 37f
5:54pm 10 14 mph 1026.4mb 39f 37f
5:48pm 11 14 mph 1026.4mb 39f 37f
5:42pm 10 15 mph 1026.4mb 39f 37f
5:36pm 11 14 mph 1026.2mb 39f 37f
5:30pm 13 14 mph 1026.2mb 39f 37f
5:24pm 10 14 mph 1026.4mb 39f 37f
5:18pm 11 15 mph 1026.4mb 39f 37f
5:12pm 11 16 mph 1026.4mb 39f 37f
5:06pm 13 17 mph 1026.4mb 39f 37f
5:00pm 14 17 mph 1026.5mb 39f 37f
4:54pm 14 17 mph 1026.5mb - 37f
4:48pm 14 16 mph 1026.6mb - 37f
4:42pm 11 16 mph 1026.6mb - 37f
4:36pm 14 17 mph 1026.6mb - 37f
4:30pm 13 15 mph 1026.7mb - 37f
4:24pm 11 15 mph 1026.8mb - 37f
4:18pm 14 16 mph 1026.7mb - 37f
4:12pm 14 16 mph 1026.7mb - 37f
4:06pm 13 16 mph 1026.7mb - 37f
4:00pm  -  mph - 32f 32f
2:42pm 15 16 mph 1026.8mb 39f 38f
2:36pm 15 16 mph 1026.8mb 39f 38f
2:30pm 15 17 mph 1026.9mb 39f 38f
2:24pm 14 17 mph 1027mb 39f 38f
2:18pm 14 17 mph 1027mb 39f 38f
2:12pm 15 18 mph 1027mb 39f 38f
2:06pm 16 20 mph 1027mb 39f 38f
2:00pm 16 20 mph 1026.9mb 39f 38f
1:54pm 15 18 mph 1027mb 39f 38f
1:48pm 15 18 mph 1027.1mb 39f 38f
1:42pm 16 20 mph 1027.2mb 39f 38f
1:36pm 16 20 mph 1027.3mb 39f 38f
1:30pm 17 20 mph 1027.3mb 39f 38f
1:24pm 16 20 mph 1027.4mb 39f 38f
1:18pm 16 21 mph 1027.5mb 39f 38f
1:12pm 18 21 mph 1027.5mb 39f 38f
1:06pm 18 22 mph 1027.5mb 39f 38f
1:00pm 18 21 mph 1027.6mb 39f 38f
12:54pm 18 21 mph 1027.7mb 39f 38f
12:48pm 17 21 mph 1027.9mb 39f 38f
12:42pm 18 21 mph 1027.9mb 39f 38f
12:36pm 17 18 mph 1028mb 39f 38f
12:30pm 15 20 mph 1028.1mb 39f 38f
12:24pm 15 18 mph 1028.2mb 39f 38f
12:18pm 14 18 mph 1028.3mb 39f 38f
12:12pm 16
mph
1028.4mb 39f 37f
12:06pm 15 17 mph 1028.5mb 39f 38f
12:00pm 15 16 mph 1028.7mb 39f 38f
11:54am 14 17 mph 1028.8mb 39f 37f
11:48am 14 17 mph 1028.9mb 39f 37f
11:42am 13 18 mph 1029mb 39f 38f
11:36am 14 17 mph 1029.1mb 39f 37f
11:30am 9 14 mph 1029.3mb 39f 37f
11:24am 11 13 mph 1029.4mb 39f 37f
11:18am 10 13 mph 1029.5mb 39f 37f
11:12am 9 13 mph 1029.6mb 39f 37f
11:06am 9 10 mph 1029.7mb 39f 37f
11:00am 9 10 mph 1029.8mb 39f 36f
10:54am 9 11 mph 1029.8mb 39f 36f
10:48am 8
mph
1030mb 39f 36f
10:42am 6
mph
1030.1mb 39f 37f
10:36am 5 6 mph 1030.1mb 39f 36f
10:30am 3
mph
1030.3mb 39f 38f
10:24am 2 3 mph 1030.4mb 39f 37f
10:18am 1 3 mph 1030.4mb 39f 37f
10:12am 1 2 mph 1030.5mb 39f 37f
10:06am 1 2 mph 1030.7mb 39f 36f
10:00am  -  2 mph 1030.7mb 39f 35f
9:54am 1 2 mph 1030.7mb 39f 34f
9:48am  -  1 mph 1030.7mb 39f 35f
9:42am  -  2 mph 1030.7mb 39f 35f
9:36am 1 2 mph 1030.6mb 39f 34f
9:30am 1 2 mph 1030.6mb 40f 34f
9:24am  -  1 mph 1030.5mb 40f 35f
9:18am  -  1 mph 1030.5mb 40f 35f
9:12am  -  2 mph 1030.4mb 40f 34f
9:06am 2
mph
1030.4mb 39f 34f
9:00am  -  mph 1030.4mb 40f 34f
8:54am  -  1 mph 1030.3mb 40f 33f
8:48am  -  2 mph 1030.4mb 39f 31f
8:42am 1 2 mph 1030.5mb 40f 31f
8:36am  -  2 mph 1030.5mb 40f 30f
8:30am 1 3 mph 1030.5mb 40f 30f
8:24am 2 3 mph 1030.5mb 39f 29f
8:18am 2 3 mph 1030.7mb 40f 29f
8:12am 2 3 mph 1030.7mb 40f 29f
8:06am 3
mph
1030.7mb 39f 29f
8:00am 2
mph
1030.7mb 39f 29f
7:54am 2
mph
1030.6mb 39f 28f
7:48am 1 2 mph 1030.4mb 39f 28f
7:42am 1 2 mph 1030.4mb 39f 28f
7:36am 2 3 mph 1030.3mb 39f 28f
7:30am 2 3 mph 1030.2mb 39f 27f
7:24am 2 3 mph 1030.5mb 39f 27f
7:18am 2 3 mph 1030.5mb 39f 27f
7:12am 3
mph
1030.6mb 39f 27f
7:06am 2 3 mph 1030.6mb 39f 27f
7:00am 2 3 mph 1030.5mb 38f 27f
6:54am 2 5 mph 1030.4mb 39f 27f
6:48am 3 5 mph 1030.4mb 39f 28f
6:42am 3
mph
1030.4mb 39f 28f
6:36am 2 5 mph 1030.5mb 39f 28f
6:30am 2 3 mph 1030.4mb 39f 28f
6:24am 3 5 mph 1030.4mb 39f 28f
6:18am 3 5 mph 1030.3mb 39f 27f
6:12am 3 5 mph 1030.2mb 40f 28f
6:06am 3 5 mph 1030.1mb 39f 28f
6:00am 2 3 mph 1030.1mb 40f 28f
5:54am 2 3 mph 1030.1mb 39f 28f
5:48am 3
mph
1030.1mb 40f 28f
5:42am 3
mph
1030.2mb 40f 28f
5:36am 3 5 mph 1030.2mb 39f 28f
5:30am 3 5 mph 1030.2mb 39f 28f
5:24am 3 5 mph 1030.1mb 39f 28f
5:18am 2 3 mph 1030.2mb 39f 28f
5:12am 2 5 mph 1030.2mb 39f 28f
5:06am 3 5 mph 1030.1mb 39f 28f
5:00am 5
mph
1030.2mb 39f 28f
4:54am 3 5 mph 1030.2mb 39f 28f
4:48am 5 6 mph 1030.2mb 39f 28f
4:42am 5 6 mph 1030.2mb 39f 28f
4:36am 5
mph
1030.3mb 39f 28f
4:30am 3 5 mph 1030.2mb 39f 28f
4:24am 2 5 mph 1030.2mb 38f 28f
4:18am 3 5 mph 1030.2mb 39f 28f
4:12am 3 5 mph 1030.2mb 38f 29f
4:06am 3 5 mph 1030.3mb 38f 29f
4:00am 3 5 mph 1030.4mb 39f 29f
3:54am 5 6 mph 1030.4mb 38f 29f
3:48am 5 6 mph 1030.4mb 38f 29f
3:42am 5 6 mph 1030.5mb 38f 29f
3:36am 5 8 mph 1030.4mb 39f 29f
3:30am 6 7 mph 1030.5mb 39f 29f
3:24am 5 6 mph 1030.5mb 39f 29f
3:18am 5 6 mph 1030.5mb 39f 29f
3:12am 5 7 mph 1030.5mb 39f 29f
3:06am 5 6 mph 1030.4mb 39f 29f
3:00am 5
mph
1030.3mb 39f 29f
2:54am 3 5 mph 1030.4mb 39f 29f
2:48am 3 5 mph 1030.4mb 39f 29f
2:42am 3 5 mph 1030.4mb 38f 29f
2:36am 5 6 mph 1030.4mb 38f 30f
2:30am 2 3 mph 1030.3mb 38f 30f
2:24am 3 5 mph 1030.4mb 39f 30f
2:18am 3 6 mph 1030.4mb 39f 30f
2:12am 3 7 mph 1030.3mb 39f 30f
2:06am 5 7 mph 1030.4mb 39f 30f
2:00am 3 7 mph 1030.3mb 39f 30f
1:54am 3 6 mph 1030.2mb 39f 30f
1:48am 5 7 mph 1030mb - -
1:42am 6 7 mph 1030.1mb - -
1:36am 3 5 mph 1029.9mb - -
1:30am 3
mph
1029.7mb 39f 30f
1:24am 2 5 mph 1029.6mb 39f 30f
1:18am 5
mph
1029.7mb 39f 30f
1:12am 3 5 mph 1029.6mb 39f 30f
1:06am 3 5 mph 1029.6mb 39f 30f
1:00am 3 5 mph 1029.6mb 39f 31f
12:54am 3 6 mph 1029.6mb 39f 31f
12:48am 3 5 mph 1029.5mb 39f 31f
12:42am 3
mph
1029.5mb 39f 31f
12:36am 2 3 mph 1029.4mb 39f 30f
12:30am 2
mph
1029.2mb 39f 30f
12:24am 1 2 mph 1029.2mb 39f 31f
12:18am 2
mph
1029.1mb 39f 30f
12:12am 2
mph
1029.2mb 39f 31f
12:06am 1 2 mph 1029.1mb 39f 31f
12:00am 1 3 mph 1029.1mb 39f 31f
Sun 01/15 11:54pm 2
mph
1029mb 39f 31f
11:48pm  -  3 mph 1029mb 39f 31f
11:42pm 2 3 mph 1029.2mb 39f 31f
11:36pm 3 6 mph 1029.2mb 39f 31f
11:30pm 5 6 mph 1029.3mb 40f 31f
11:24pm 3 6 mph 1029.3mb 40f 31f
11:18pm 5
mph
1029.4mb 40f 31f
11:12pm 3 5 mph 1029.3mb 40f 31f
11:06pm 5
mph
1029.1mb 40f 31f
11:00pm 3 5 mph 1028.9mb 39f 31f
10:54pm 3
mph
1029mb 39f 31f
10:48pm 1 3 mph 1029.2mb 39f 31f
10:42pm 3
mph
1029.1mb 40f 31f
10:36pm 2 3 mph 1029mb 40f 31f
10:30pm 3
mph
1029.1mb 40f 31f
10:24pm 1
mph
1029.2mb 40f 32f
10:18pm 1 2 mph 1029mb 40f 31f
10:12pm 2
mph
1029.1mb 40f 31f
10:06pm 2 3 mph 1028.9mb 40f 32f
10:00pm 2
mph
1028.9mb 40f 31f
9:54pm 2
mph
1029mb 40f 32f
9:48pm 1
mph
1029mb 40f 31f
9:42pm  -  2 mph 1029mb 40f 32f
9:36pm 2
mph
1029.2mb 40f 32f
9:30pm 1 2 mph 1029.2mb 40f 32f
9:24pm  -  3 mph 1029.2mb 40f 32f
9:18pm 2 5 mph 1029.1mb 40f 33f
9:12pm 3 5 mph 1029.1mb 40f 33f
9:06pm 3 5 mph 1029mb 40f 33f
9:00pm 3
mph
1029mb 40f 33f
8:54pm 2 3 mph 1028.9mb 40f 33f
8:48pm 2 3 mph 1028.7mb 40f 33f
8:42pm 1 2 mph 1028.5mb 40f 33f
8:36pm 2 5 mph 1028.4mb 40f 33f
8:30pm 3 5 mph 1028.4mb 40f 34f
8:24pm 3 7 mph 1028.3mb 40f 35f
8:18pm 5 6 mph 1028.2mb 40f 34f
8:12pm 3 5 mph 1028.3mb 40f 33f
8:06pm 3
mph
1028.3mb 40f 33f
8:00pm 2 3 mph 1028.3mb 40f 34f
7:54pm 2 3 mph 1028.3mb 40f 33f
7:48pm 2
mph
1028.1mb 40f 34f
7:42pm  -  2 mph 1028.1mb 40f 34f
7:36pm 1 2 mph 1028mb 40f 34f
7:30pm  -  3 mph 1027.8mb 41f 34f
7:24pm 2 5 mph 1027.6mb 40f 34f
7:18pm 3 5 mph 1027.6mb 41f 34f
7:12pm 3 5 mph 1027.6mb 41f 34f
7:06pm 3
mph
1027.6mb 41f 33f
7:00pm 3
mph
1027.6mb 40f 33f
6:54pm 2 3 mph 1027.6mb 40f 33f
6:48pm 2
mph
1027.6mb 40f 34f
6:42pm 1 3 mph 1027.5mb 41f 34f
6:36pm 2 3 mph 1027.4mb 41f 34f
6:30pm 1 2 mph 1027.5mb 41f 35f
6:24pm 1 3 mph 1027.5mb 41f 36f
6:18pm 1 5 mph 1027.4mb 40f 36f
6:12pm 2 3 mph 1027.4mb 40f 36f
6:06pm 3 5 mph 1027.4mb 40f 36f
6:00pm 3
mph
1027.3mb 40f 36f
5:54pm 2 5 mph 1027.2mb 40f 37f
5:48pm 3 5 mph 1027.1mb 40f 37f
5:42pm 3 5 mph 1027mb 41f 37f
5:36pm 3 6 mph 1026.9mb 41f 37f
5:30pm 2 6 mph 1026.8mb 41f 36f
5:24pm 1
mph
1026.7mb 41f 35f
5:18pm  -  1 mph 1026.7mb 41f 35f
5:12pm  -  1 mph 1026.7mb 41f 35f
5:06pm 1
mph
1026.6mb 41f 36f
5:00pm  -  1 mph 1026.6mb 41f 36f
4:48pm  -  2 mph 1026.4mb 40f 37f
4:42pm 1 2 mph 1026.3mb 41f 37f
4:36pm 1 2 mph 1026.3mb 40f 37f
4:30pm 2
mph
1026.3mb 40f 37f
4:24pm 2
mph
1026.3mb 41f 38f
4:18pm  -  1 mph 1026.2mb 41f 38f
4:12pm  -  2 mph 1026.1mb 40f 38f
4:06pm 1 5 mph 1026mb 40f 38f
4:00pm 2 5 mph 1026mb 40f 38f
3:54pm 2 5 mph 1025.9mb 40f 38f
3:48pm 2 6 mph 1025.8mb 40f 37f
3:42pm 5 6 mph 1025.7mb 40f 37f
3:36pm 3 8 mph 1025.6mb 40f 37f
3:30pm 6 9 mph 1025.6mb 40f 37f
3:24pm 6 8 mph 1025.6mb 40f 37f
3:18pm 6 8 mph 1025.6mb 40f 37f
3:12pm 6
mph
1025.5mb 40f 37f
3:06pm 3 7 mph 1025.6mb 39f 37f
3:00pm 5 8 mph 1025.5mb 39f 37f
2:54pm 6 8 mph 1025.4mb 39f 37f
2:48pm 7 9 mph 1025.3mb 39f 37f
2:42pm 6 9 mph 1025.3mb 40f 37f
2:36pm 7 10 mph 1025.2mb 39f 37f
2:30pm 8 10 mph 1025.2mb 39f 37f
2:24pm 6 9 mph 1025.1mb 39f 37f
2:18pm 7 9 mph 1025.1mb 39f 37f
2:12pm 7 10 mph 1025.1mb 39f 36f
2:06pm 8 11 mph 1025mb 39f 36f
2:00pm 9 11 mph 1024.9mb 39f 36f
1:54pm 7 10 mph 1024.9mb 39f 36f
1:48pm 6 9 mph 1024.8mb 39f 36f
1:42pm 5 10 mph 1024.8mb 39f 36f
1:36pm 5 10 mph 1024.8mb 39f 36f
1:30pm 7 11 mph 1024.8mb 39f 36f
1:24pm 8 11 mph 1024.9mb 39f 35f
1:18pm 8 10 mph 1024.8mb 39f 35f
1:12pm 8 11 mph 1024.8mb 39f 35f
1:06pm 8 13 mph 1024.9mb 39f 35f
1:00pm 9 11 mph 1024.9mb 39f 35f
12:54pm 8 13 mph 1025mb 39f 35f
12:48pm 7 11 mph 1024.9mb 39f 35f
12:42pm 7 11 mph 1024.9mb 39f 35f
12:36pm 7 11 mph 1025mb 39f 35f
12:30pm 9 14 mph 1025mb 39f 34f
12:24pm 7 11 mph 1025.1mb 39f 34f
12:18pm 9 13 mph 1025.2mb 39f 34f
12:12pm 9 11 mph 1025.3mb 39f 34f
12:06pm 9 13 mph 1025.3mb 39f 34f
12:00pm 10 15 mph 1025.4mb 39f 34f
11:54am 11 15 mph 1025.4mb 39f 34f
11:48am 8 13 mph 1025.4mb 39f 34f
11:42am 9 13 mph 1025.5mb 39f 34f
11:36am 9 15 mph 1025.6mb 39f 33f
11:30am 10 16 mph 1025.6mb 39f 33f
11:24am 10 16 mph 1025.6mb 39f 33f
11:18am 11 15 mph 1025.7mb 39f 33f
11:12am 9 14 mph 1025.7mb 39f 33f
11:06am 10 16 mph 1025.7mb 39f 33f
11:00am 10 16 mph 1025.6mb 39f 33f
10:54am 11 17 mph 1025.7mb 39f 33f
10:48am 13 17 mph 1025.9mb 39f 33f
10:42am 11 17 mph 1025.9mb 39f 33f
10:36am 11 17 mph 1026mb 39f 33f
10:30am 10 15 mph 1026.1mb 39f 33f
10:24am 13 17 mph 1026.1mb 39f 33f
10:18am 14 18 mph 1026.2mb 39f 33f
10:12am 11 16 mph 1026.2mb 39f 33f
10:06am 9 14 mph 1026.2mb 39f 33f
10:00am 10 15 mph 1026.2mb 39f 32f
9:54am 10 15 mph 1026.3mb 39f 32f
9:48am 13 15 mph 1026.3mb 39f 32f
9:42am 13 14 mph 1026.3mb 39f 32f
9:36am 8 17 mph 1026.2mb 39f 32f
9:30am 9 14 mph 1026.2mb 39f 31f
9:24am 9 14 mph 1026.2mb 39f 31f
9:18am 7 13 mph 1026.1mb 40f 31f
9:12am 9 14 mph 1026mb 40f 31f
9:06am 11 14 mph 1026mb 40f 31f
9:00am 11 15 mph 1026mb 40f 31f
8:54am 9 10 mph 1026mb 39f 31f
8:48am 7 13 mph 1025.9mb 39f 31f
8:42am 9 11 mph 1025.9mb 39f 30f
8:36am 7 10 mph 1025.7mb 39f 31f
8:30am 6 13 mph 1025.6mb 39f 31f
8:24am 8 13 mph 1025.5mb 39f 30f
8:18am 7 11 mph 1025.4mb 39f 31f
8:12am 8 13 mph 1025.3mb 39f 30f
8:06am 9 13 mph 1025.2mb 39f 30f
8:00am 9 11 mph 1025.2mb 39f 30f
7:54am 9 14 mph 1025.1mb 39f 30f
7:48am 9 10 mph 1025mb 40f 30f
7:42am 6 10 mph 1024.9mb 40f 31f
7:36am 9 13 mph 1024.8mb 40f 30f
7:30am 9 11 mph 1024.7mb 40f 31f
7:24am 8 11 mph 1024.6mb 40f 31f
7:18am 9 13 mph 1024.5mb 39f 30f
7:12am 8 14 mph 1024.4mb 40f 31f
7:06am 8 11 mph 1024.3mb 40f 30f
7:00am 7 9 mph 1024.3mb 40f 30f
6:54am 7 10 mph 1024.2mb 40f 30f
6:48am 9 11 mph 1024.3mb 40f 30f
6:42am 8 13 mph 1024.2mb 39f 30f
6:36am 8 14 mph 1024.2mb 39f 30f
6:30am 8 11 mph 1024.1mb 39f 30f
6:24am 8 11 mph 1024mb 39f 30f
6:18am 8 11 mph 1023.8mb 39f 30f
6:12am 7 9 mph 1023.7mb 39f 30f
6:06am 5 11 mph 1023.6mb 39f 30f
6:00am 8 11 mph 1023.6mb 39f 30f
5:54am 7 11 mph 1023.5mb 39f 30f
5:48am 8 10 mph 1023.4mb 39f 30f
5:42am 8 11 mph 1023.3mb 39f 30f
5:36am 7 9 mph 1023.3mb 39f 30f
5:30am 6 8 mph 1023.4mb 39f 31f
5:24am 6 10 mph 1023.3mb 40f 31f
5:18am 7 9 mph 1023.3mb 40f 31f
5:12am 9 13 mph 1023.3mb 40f 31f
5:06am 8 11 mph 1023.3mb 40f 31f
5:00am 8 11 mph 1023.4mb 40f 31f
4:54am 6 10 mph 1023.3mb 40f 31f
4:48am 5 8 mph 1023.3mb 40f 31f
4:42am 6 8 mph 1023.2mb 40f 31f
4:36am 7 11 mph 1023.2mb 40f 31f
4:30am 8 10 mph 1023.2mb 40f 31f
4:24am 6 11 mph 1023.3mb 40f 31f
4:18am 7 11 mph 1023.3mb 40f 31f
4:12am 8 11 mph 1023.3mb 40f 31f
4:06am 9 13 mph 1023.3mb 40f 31f
4:00am 7 10 mph 1023.5mb 40f 31f
3:54am 8 10 mph 1023.4mb 40f 31f
3:48am 8 11 mph 1023.4mb 40f 31f
3:42am 7 11 mph 1023.5mb 40f 31f
3:36am 7 10 mph 1023.6mb 40f 31f
3:30am 8 13 mph 1023.6mb 40f 31f
3:24am 8 11 mph 1023.7mb 40f 31f
3:18am 7 14 mph 1023.7mb 40f 31f
3:12am 7 10 mph 1023.8mb 40f 32f
3:06am 7 13 mph 1023.8mb 39f 31f
3:00am 8 11 mph 1023.8mb 39f 31f
2:54am 9 11 mph 1023.8mb 39f 31f
2:48am 8 10 mph 1023.9mb 39f 32f
2:42am 9 13 mph 1024mb 39f 32f
2:30am 7 10 mph 1024.1mb 39f 32f
2:24am 6 10 mph 1024.1mb 39f 32f
2:18am 7 10 mph 1024.1mb 39f 32f
2:12am 7 9 mph 1024.1mb 39f 32f
2:06am 6 8 mph 1024.1mb 39f 32f
2:00am 6 10 mph 1024.1mb 39f 32f
1:54am 7 9 mph 1024.2mb 39f 32f
1:48am 6 8 mph 1024.2mb 39f -
1:42am 6 7 mph 1024.3mb 39f -
1:36am 5 7 mph 1024.4mb 39f -
1:30am 5 6 mph 1024.3mb 39f 32f
1:24am 3 7 mph 1024.3mb 40f 32f
1:18am 6 9 mph 1024.3mb 39f 32f
1:12am 6 8 mph 1024.3mb 39f 32f
1:06am 5 9 mph 1024.3mb 39f 32f
1:00am 6 8 mph 1024.3mb 40f 32f
12:54am 6 10 mph 1024.3mb 40f 32f
12:48am 8 11 mph 1024.4mb - -
12:42am 8 13 mph 1024.6mb - -
12:30am 8 15 mph 1024.7mb 40f 32f
12:24am 9 14 mph 1024.8mb 39f 32f
12:18am 8 10 mph 1024.9mb 40f 32f
12:12am 8 14 mph 1025mb 39f 32f
12:06am 7 11 mph 1025.1mb 40f 32f
12:00am 7 10 mph 1025.2mb 40f 31f
Sat 01/14 11:54pm 9 13 mph 1025.2mb 39f 31f
11:48pm 7 11 mph 1025.3mb 40f 31f
11:42pm 7 13 mph 1025.5mb 40f 31f
11:36pm 9 11 mph 1025.6mb 40f 31f
11:30pm 8 10 mph 1025.7mb 40f 31f
11:24pm 5 8 mph 1025.9mb 40f 31f
11:18pm 5 8 mph 1026.1mb 40f 31f
11:12pm 6 11 mph 1026.2mb 40f 31f
11:06pm 9
mph
1026.2mb 40f 31f
11:00pm 6 10 mph 1026.4mb 40f 30f
10:54pm 6 9 mph 1026.6mb 40f 30f
10:48pm 7 9 mph 1026.8mb 40f 30f
10:42pm 6 9 mph 1026.9mb 40f 30f
10:36pm 7 9 mph 1026.9mb 40f 30f
10:30pm 6 9 mph 1027.1mb 40f 30f
10:24pm 8 10 mph 1027.2mb 40f 30f
10:18pm 7 11 mph 1027.2mb 40f 30f
10:12pm 8 11 mph 1027.2mb 40f 30f
10:06pm 7 11 mph 1027.3mb 40f 30f
10:00pm 6 9 mph 1027.5mb 40f 31f
9:54pm 6 9 mph 1027.6mb 40f 31f
9:48pm 7 8 mph 1027.7mb 40f 30f
9:42pm 3 8 mph 1027.8mb 40f 30f
9:36pm 6 11 mph 1028mb 40f 30f
9:30pm 7 9 mph 1027.9mb 40f 30f
9:24pm 5 8 mph 1028mb 40f 29f
9:18pm 6 9 mph 1028.1mb 40f 29f
9:12pm 5 8 mph 1028.2mb 40f 29f
9:06pm 6 9 mph 1028.2mb 40f 29f
9:00pm 7 9 mph 1028.4mb 40f 29f
8:54pm 7 9 mph 1028.6mb 40f 29f
8:48pm 7 8 mph 1028.5mb 40f 29f
8:42pm 3 6 mph 1028.4mb 40f 29f
8:36pm 3 5 mph 1028.4mb 40f 28f
8:30pm 3 6 mph 1028.6mb 40f 28f
8:24pm 3 6 mph 1028.6mb 40f 28f
8:18pm 5 7 mph 1028.8mb 40f 28f
8:12pm 5 8 mph 1028.8mb 40f 28f
8:06pm 6 8 mph 1029mb 40f 28f
8:00pm 7 9 mph 1029.3mb 40f 28f
7:54pm 6 8 mph 1029.2mb 40f 29f
7:48pm 6 9 mph 1029.2mb 40f 29f
7:42pm 8 9 mph 1029.2mb 40f 29f
7:36pm 6 11 mph 1029.1mb 40f 30f
7:30pm 9 13 mph 1029.2mb 40f 31f
7:24pm 8 10 mph 1029.2mb 40f 31f
7:18pm 9 10 mph 1029.2mb 40f 31f
7:12pm 9 10 mph 1029.3mb 40f 31f
7:06pm 9 11 mph 1029.4mb 40f 32f
7:00pm 9 11 mph 1029.4mb 40f 32f
6:54pm 8 10 mph 1029.6mb 40f 32f
6:48pm 8 9 mph 1029.7mb 40f 32f
6:42pm 8 9 mph 1029.8mb 40f 31f
6:36pm 7 9 mph 1030mb 40f 31f
6:30pm 7 9 mph 1030.1mb 40f 31f
6:24pm 7 9 mph 1030.2mb 40f 31f
6:18pm 7 10 mph 1030.2mb 40f 31f
6:12pm 8 10 mph 1030.2mb 40f 31f
6:06pm 7 9 mph 1030.3mb 40f 31f
6:00pm 6 9 mph 1030.5mb 40f 31f
5:54pm 8 11 mph 1030.6mb 40f 30f
5:48pm 9 11 mph 1030.7mb 40f 31f
5:42pm 8 10 mph 1030.8mb 40f 30f
5:36pm 8 13 mph 1031mb 40f 30f
5:30pm 9 13 mph 1031mb 40f 30f
5:24pm 9 14 mph 1031.1mb 40f 30f
5:18pm 10 13 mph 1031.1mb 40f 30f
5:12pm 10 13 mph 1031.2mb 40f 30f
5:06pm 8 9 mph 1031.3mb 40f 30f
5:00pm 8 11 mph 1031.4mb 40f 29f
4:54pm 9 11 mph 1031.6mb 40f 29f
4:48pm 7 9 mph 1031.7mb 40f 29f
4:42pm 7 9 mph 1031.7mb 40f 29f
4:36pm 8 10 mph 1031.8mb 40f 29f
4:30pm 7 10 mph 1032mb 40f 29f
4:24pm 8 9 mph 1032mb 40f 29f
4:18pm 8 10 mph 1032.1mb 40f 29f
4:12pm 9 10 mph 1032.3mb 40f 29f
4:06pm 8 11 mph 1032.4mb 40f 29f
4:00pm 8 13 mph 1032.6mb 40f 29f
3:54pm 8 10 mph 1032.5mb 40f 29f
3:48pm 9 11 mph 1032.6mb 40f 29f
3:42pm 9 13 mph 1032.6mb 40f 29f
3:36pm 8 13 mph 1032.7mb 40f 29f
3:30pm 9 13 mph 1032.8mb 40f 29f
3:24pm 10 11 mph 1033mb 40f 29f
3:18pm 9 13 mph 1033.1mb 40f 29f
3:12pm 8 11 mph 1033.3mb 40f 29f
3:06pm 7 11 mph 1033.4mb 40f 29f
3:00pm 8 10 mph 1033.5mb 40f 29f
2:54pm 8 9 mph 1033.6mb 40f 29f
2:48pm 7 10 mph 1033.6mb 40f 29f
2:42pm 8 10 mph 1033.5mb 40f 28f
2:36pm 8 10 mph 1033.6mb 40f 29f
2:30pm 7 9 mph 1033.4mb 40f 28f
2:24pm 7 8 mph 1033.2mb 40f 28f
2:18pm 7 9 mph 1033.6mb 40f 28f
2:12pm 6 7 mph 1033.7mb 40f 28f
2:06pm 5 7 mph 1033.7mb 40f 28f
2:00pm 5 8 mph 1033.8mb 40f 28f
1:54pm 7 9 mph 1033.9mb 40f 28f
1:48pm 6 9 mph 1033.9mb 39f 28f
1:42pm 7 9 mph 1034mb 39f 28f
1:36pm 8 10 mph 1034.2mb 39f 28f
1:30pm 7 9 mph 1034.2mb 39f 28f
1:24pm 7 8 mph 1034.3mb 39f 28f
1:18pm 6 8 mph 1034.6mb 39f 29f
1:12pm 5 6 mph 1034.6mb 39f 29f
1:06pm 3 5 mph 1034.6mb 39f 29f
1:00pm 2 5 mph 1034.8mb 39f 28f
12:54pm 2 3 mph 1035mb 39f 28f
12:48pm 2 3 mph 1035mb 39f 28f
12:42pm 2 3 mph 1035.2mb 39f 28f
12:36pm  -  3 mph 1035.4mb 39f 29f
12:30pm 1 3 mph 1035.6mb 39f 28f
12:24pm 2 5 mph 1035.8mb 39f 27f
12:18pm 2 3 mph 1035.9mb 39f 28f
12:12pm 2 3 mph 1036.3mb 39f 28f
12:06pm 2 6 mph 1036.3mb 39f 27f
12:00pm 1 5 mph 1036.5mb 39f 27f
11:54am 2 7 mph 1036.5mb 39f 26f
11:48am 3
mph
1036.8mb 39f 26f
11:42am 2 6 mph 1036.7mb 39f 26f
11:36am 2 6 mph 1036.9mb 39f 27f
11:30am 3 6 mph 1037.1mb 39f 26f
11:24am 5 7 mph 1037.2mb 39f 26f
11:18am 3 6 mph 1037.2mb 39f 26f
11:12am 5 7 mph 1037.5mb 39f 26f
11:06am 5 7 mph 1037.4mb 39f 26f
11:00am 6 8 mph 1037.9mb 39f 26f
10:54am 5 8 mph 1037.8mb 39f 26f
10:48am 7 8 mph 1037.8mb 39f 25f
10:42am 8 10 mph 1037.9mb 39f 26f
10:36am 7 11 mph 1037.9mb 39f 25f
10:30am 9 10 mph 1038.1mb 39f 25f
10:24am 8 11 mph 1038.3mb 39f 26f
10:18am 8 10 mph 1038.6mb 39f 25f
10:12am 8 13 mph 1038.7mb 39f 25f
10:06am 8 13 mph 1038.6mb 39f 25f
10:00am 9 11 mph 1038.8mb 40f 25f
9:54am 8 11 mph 1038.8mb 39f 25f
9:48am 8 11 mph 1038.8mb 39f 25f
9:42am 9 13 mph 1038.9mb 40f 25f
9:36am 9 14 mph 1038.8mb 40f 25f
9:30am 9 14 mph 1038.9mb 40f 25f
9:24am 9 14 mph 1039.1mb 40f 25f
9:18am 7 13 mph 1038.9mb 40f 26f
9:12am 10 14 mph 1039mb 40f 25f
9:06am 10 15 mph 1039.2mb 40f 24f
9:00am 9 13 mph 1039.2mb 40f 25f
8:54am 8 13 mph 1039.4mb 40f 24f
8:48am 9 13 mph 1039.6mb 40f 24f
8:42am 8 11 mph 1039.4mb 40f 24f
8:36am 7 10 mph 1039.4mb 40f 24f
8:30am 7 9 mph 1039.2mb 40f 24f
8:24am 7 11 mph 1039.3mb 40f 24f
8:18am 8 11 mph 1039.4mb 40f 24f
8:12am 7 10 mph 1039.3mb 40f 24f
8:06am 7 8 mph 1039.4mb 40f 24f
8:00am 7 10 mph 1039.4mb 40f 24f
7:54am 7 9 mph 1039.2mb 40f 24f
7:48am 9 11 mph 1039.3mb 40f 24f
7:42am 8 10 mph 1039.2mb 40f 24f
7:36am 7 9 mph 1039.2mb 40f 23f
7:30am 7 9 mph 1039.2mb 40f 24f
7:24am 7 10 mph 1039mb 40f 24f
7:18am 8 9 mph 1039mb 40f 24f
7:12am 7 9 mph 1039.1mb 40f 24f
7:06am 7 10 mph 1038.8mb 40f 24f
7:00am 8 10 mph 1039.1mb 40f 24f
6:54am 8 11 mph 1039.1mb 40f 24f
6:48am 8 13 mph 1038.7mb 40f 24f
6:42am 8 11 mph 1039.1mb 40f 24f
6:36am 9 11 mph 1039.2mb 40f 24f
6:30am 8 10 mph 1038.8mb 40f 25f
6:24am 8 10 mph 1038.8mb 40f 24f
6:18am 8 10 mph 1039.2mb 40f 25f
6:12am 8 10 mph 1038.8mb 40f 25f
6:06am 7 11 mph 1038.8mb 40f 25f
6:00am 9 11 mph 1039.2mb 40f 25f
5:54am 8 9 mph 1039mb 40f 25f
5:48am 5 8 mph 1038.9mb 40f 25f
5:42am 7 9 mph 1039.3mb 40f 25f
5:36am 6 8 mph 1039.1mb 40f 25f
5:30am 6 8 mph 1039mb 40f 25f